createdAt,value
2018-07-13T00:02:03.939Z,56.50
2018-07-13T00:04:31.587Z,56.90
2018-07-13T00:06:59.168Z,57.50
2018-07-13T00:09:26.785Z,57.10
2018-07-13T00:11:54.370Z,57.20
2018-07-13T00:14:23.276Z,57.40
2018-07-13T00:19:21.040Z,58.10
2018-07-13T00:21:48.585Z,57.60
2018-07-13T00:24:16.157Z,57.30
2018-07-13T00:26:44.027Z,57.10
2018-07-13T00:29:11.904Z,57.00
2018-07-13T00:31:40.684Z,57.40
2018-07-13T00:34:08.272Z,57.70
2018-07-13T00:36:36.089Z,57.40
2018-07-13T00:39:07.199Z,57.70
2018-07-13T00:41:34.758Z,58.20
2018-07-13T00:44:02.358Z,57.80
2018-07-13T00:46:30.153Z,58.20
2018-07-13T00:48:57.731Z,57.40
2018-07-13T00:51:25.324Z,58.50
2018-07-13T00:53:52.916Z,58.30
2018-07-13T00:56:20.432Z,57.30
2018-07-13T00:58:48.216Z,57.40
2018-07-13T01:01:15.715Z,57.70
2018-07-13T01:03:43.555Z,57.80
2018-07-13T01:06:11.072Z,58.10
2018-07-13T01:08:38.561Z,58.20
2018-07-13T01:11:06.029Z,58.50
2018-07-13T01:13:33.646Z,58.80
2018-07-13T01:16:01.136Z,59.10
2018-07-13T01:18:28.640Z,58.90
2018-07-13T01:20:56.615Z,58.40
2018-07-13T01:23:24.108Z,58.70
2018-07-13T01:25:51.573Z,58.30
2018-07-13T01:28:19.120Z,58.50
2018-07-13T01:30:46.614Z,59.30
2018-07-13T01:33:14.097Z,58.30
2018-07-13T01:35:41.788Z,58.40
2018-07-13T01:38:09.247Z,58.70
2018-07-13T01:40:36.756Z,59.10
2018-07-13T01:43:04.399Z,59.20
2018-07-13T01:45:31.897Z,58.70
2018-07-13T01:47:59.456Z,58.90
2018-07-13T01:50:27.006Z,59.10
2018-07-13T01:52:54.548Z,59.30
2018-07-13T01:55:22.069Z,59.40
2018-07-13T01:57:49.762Z,60.00
2018-07-13T02:00:17.267Z,59.50
2018-07-13T02:02:44.978Z,59.70
2018-07-13T02:07:40.183Z,60.30
2018-07-13T02:10:07.816Z,60.10
2018-07-13T02:12:35.320Z,60.10
2018-07-13T02:15:02.876Z,59.70
2018-07-13T02:17:30.384Z,59.50
2018-07-13T02:19:57.917Z,59.80
2018-07-13T02:22:25.398Z,59.50
2018-07-13T02:24:52.915Z,60.00
2018-07-13T02:27:20.425Z,60.60
2018-07-13T02:29:47.952Z,60.60
2018-07-13T02:32:15.480Z,60.30
2018-07-13T02:37:10.448Z,60.50
2018-07-13T02:39:37.976Z,60.60
2018-07-13T02:42:05.444Z,61.10
2018-07-13T02:44:32.972Z,60.70
2018-07-13T02:47:00.751Z,60.40
2018-07-13T02:49:28.289Z,60.70
2018-07-13T02:51:56.006Z,60.90
2018-07-13T02:54:23.557Z,61.10
2018-07-13T02:56:51.112Z,60.80
2018-07-13T02:59:18.724Z,61.00
2018-07-13T03:01:46.273Z,61.20
2018-07-13T03:04:13.930Z,61.00
2018-07-13T03:09:10.753Z,60.50
2018-07-13T03:11:38.548Z,60.70
2018-07-13T03:14:06.776Z,60.60
2018-07-13T03:16:34.533Z,61.10
2018-07-13T03:19:02.170Z,61.20
2018-07-13T03:21:29.672Z,60.60
2018-07-13T03:23:57.285Z,61.20
2018-07-13T03:26:24.997Z,60.90
2018-07-13T03:28:52.844Z,60.10
2018-07-13T03:31:20.371Z,60.00
2018-07-13T03:33:48.200Z,60.40
2018-07-13T03:36:15.716Z,61.20
2018-07-13T03:38:43.574Z,62.10
2018-07-13T03:41:11.372Z,62.30
2018-07-13T03:43:38.896Z,62.00
2018-07-13T03:46:06.665Z,62.10
2018-07-13T03:48:41.506Z,62.00
2018-07-13T03:51:09.255Z,62.00
2018-07-13T03:53:36.842Z,61.40
2018-07-13T03:56:04.792Z,61.20
2018-07-13T03:58:32.506Z,61.10
2018-07-13T04:03:27.609Z,61.90
2018-07-13T04:05:55.133Z,62.00
2018-07-13T04:08:22.977Z,62.50
2018-07-13T04:10:50.493Z,62.90
2018-07-13T04:13:18.019Z,64.20
2018-07-13T04:15:45.800Z,64.10
2018-07-13T04:18:17.823Z,62.60
2018-07-13T04:20:45.637Z,62.60
2018-07-13T04:23:13.177Z,62.90
2018-07-13T04:25:40.696Z,63.40
2018-07-13T04:28:08.517Z,63.60
2018-07-13T04:30:36.084Z,64.70
2018-07-13T04:33:03.606Z,64.10
2018-07-13T04:35:31.144Z,63.40
2018-07-13T04:37:58.662Z,63.40
2018-07-13T04:40:26.145Z,63.30
2018-07-13T04:42:53.689Z,64.20
2018-07-13T04:47:48.656Z,64.00
2018-07-13T04:50:16.295Z,64.20
2018-07-13T04:52:43.797Z,64.40
2018-07-13T04:55:11.324Z,64.70
2018-07-13T04:57:39.138Z,65.20
2018-07-13T05:00:06.663Z,65.30
2018-07-13T05:02:34.457Z,65.60
2018-07-13T05:05:02.030Z,65.40
2018-07-13T05:12:24.748Z,65.60
2018-07-13T05:14:52.385Z,66.50
2018-07-13T05:17:20.338Z,66.40
2018-07-13T05:22:15.288Z,67.30
2018-07-13T05:24:42.832Z,66.90
2018-07-13T05:27:10.364Z,66.50
2018-07-13T05:29:37.853Z,66.30
2018-07-13T05:32:05.433Z,66.00
2018-07-13T05:34:33.345Z,65.80
2018-07-13T05:37:01.034Z,65.80
2018-07-13T05:39:28.581Z,66.00
2018-07-13T05:41:56.101Z,65.90
2018-07-13T05:44:23.654Z,66.10
2018-07-13T05:46:51.177Z,66.20
2018-07-13T05:49:18.733Z,65.90
2018-07-13T05:51:46.281Z,66.20
2018-07-13T05:54:14.261Z,66.90
2018-07-13T05:56:41.781Z,66.50
2018-07-13T06:01:36.814Z,66.40
2018-07-13T06:04:04.485Z,66.70
2018-07-13T06:06:31.994Z,66.30
2018-07-13T06:08:59.506Z,65.90
2018-07-13T06:11:27.053Z,65.60
2018-07-13T06:13:54.542Z,65.40
2018-07-13T06:16:22.657Z,65.20
2018-07-13T06:18:50.431Z,65.50
2018-07-13T06:21:17.952Z,65.70
2018-07-13T06:23:45.652Z,65.70
2018-07-13T06:26:13.159Z,66.10
2018-07-13T06:28:40.634Z,66.10
2018-07-13T06:31:08.268Z,65.60
2018-07-13T06:33:35.762Z,65.60
2018-07-13T06:36:03.640Z,65.30
2018-07-13T06:38:31.200Z,64.80
2018-07-13T06:43:26.237Z,64.00
2018-07-13T06:45:53.742Z,63.50
2018-07-13T06:48:21.472Z,62.60
2018-07-13T06:50:49.017Z,60.90
2018-07-13T06:53:16.728Z,60.90
2018-07-13T06:55:44.774Z,60.20
2018-07-13T06:58:23.864Z,60.30
2018-07-13T07:00:57.320Z,59.50
2018-07-13T07:03:25.567Z,60.00
2018-07-13T07:05:54.837Z,60.60
2018-07-13T07:08:22.365Z,59.80
2018-07-13T07:10:49.876Z,59.30
2018-07-13T07:13:23.411Z,58.90
2018-07-13T07:15:50.984Z,58.70
2018-07-13T07:18:18.517Z,58.20
2018-07-13T07:20:46.196Z,57.90
2018-07-13T07:23:13.901Z,57.10
2018-07-13T07:25:41.417Z,56.50
2018-07-13T07:28:09.173Z,56.70
2018-07-13T07:30:43.341Z,56.80
2018-07-13T07:33:10.840Z,55.10
2018-07-13T07:35:38.337Z,55.10
2018-07-13T07:38:05.817Z,54.80
2018-07-13T07:40:33.345Z,54.20
2018-07-13T07:45:28.322Z,52.20
2018-07-13T07:47:55.864Z,51.50
2018-07-13T07:50:23.388Z,52.20
2018-07-13T07:52:51.153Z,51.70
2018-07-13T07:55:18.876Z,51.50
2018-07-13T07:57:46.403Z,51.60
2018-07-13T08:00:13.936Z,51.80
2018-07-13T08:02:41.526Z,52.10
2018-07-13T08:05:09.015Z,51.30
2018-07-13T08:07:36.616Z,52.10
2018-07-13T08:10:04.453Z,51.70
2018-07-13T08:12:31.953Z,50.90
2018-07-13T08:14:59.464Z,49.60
2018-07-13T08:17:27.313Z,50.00
2018-07-13T08:19:55.167Z,47.70
2018-07-13T08:22:40.879Z,47.70
2018-07-13T08:25:11.180Z,49.20
2018-07-13T08:27:43.041Z,48.70
2018-07-13T08:30:14.751Z,48.20
2018-07-13T08:32:42.309Z,47.80
2018-07-13T08:35:10.046Z,48.00
2018-07-13T08:37:37.551Z,47.80
2018-07-13T08:40:05.336Z,46.60
2018-07-13T08:42:32.865Z,45.60
2018-07-13T08:45:00.358Z,45.10
2018-07-13T08:47:27.936Z,45.60
2018-07-13T08:49:55.453Z,45.80
2018-07-13T08:52:22.997Z,45.10
2018-07-13T08:54:50.713Z,45.20
2018-07-13T08:57:18.223Z,44.90
2018-07-13T08:59:45.789Z,43.50
2018-07-13T09:02:13.361Z,42.40
2018-07-13T09:04:40.852Z,42.40
2018-07-13T09:09:36.047Z,41.60
2018-07-13T09:12:03.653Z,41.10
2018-07-13T09:14:31.156Z,41.80
2018-07-13T09:16:58.875Z,40.90
2018-07-13T09:19:26.416Z,41.00
2018-07-13T09:24:21.365Z,41.80
2018-07-13T09:26:49.183Z,41.90
2018-07-13T09:29:16.701Z,40.70
2018-07-13T09:31:44.265Z,39.80
2018-07-13T09:34:11.768Z,39.60
2018-07-13T09:36:39.275Z,39.50
2018-07-13T09:39:07.531Z,39.40
2018-07-13T09:41:35.067Z,39.40
2018-07-13T09:44:02.603Z,38.80
2018-07-13T09:48:57.964Z,38.50
2018-07-13T09:51:25.461Z,38.50
2018-07-13T09:53:53.324Z,37.60
2018-07-13T09:56:20.796Z,38.30
2018-07-13T09:58:48.490Z,36.90
2018-07-13T10:01:20.669Z,37.00
2018-07-13T10:03:48.528Z,36.70
2018-07-13T10:06:16.081Z,37.40
2018-07-13T10:08:43.597Z,36.90
2018-07-13T10:11:11.111Z,36.10
2018-07-13T10:13:38.704Z,35.60
2018-07-13T10:16:06.261Z,34.70
2018-07-13T10:18:33.761Z,34.60
2018-07-13T10:21:02.051Z,34.00
2018-07-13T10:23:30.368Z,35.00
2018-07-13T10:26:04.241Z,35.50
2018-07-13T10:28:31.964Z,35.10
2018-07-13T10:30:59.536Z,34.20
2018-07-13T10:33:27.064Z,34.40
2018-07-13T10:35:54.609Z,35.70
2018-07-13T10:38:22.452Z,35.50
2018-07-13T10:40:49.929Z,34.80
2018-07-13T10:43:17.413Z,32.30
2018-07-13T10:45:45.010Z,32.80
2018-07-13T10:48:12.489Z,32.70
2018-07-13T10:50:39.969Z,31.90
2018-07-13T10:53:07.508Z,32.50
2018-07-13T10:55:35.157Z,32.80
2018-07-13T10:58:02.645Z,32.00
2018-07-13T11:00:30.242Z,31.60
2018-07-13T11:02:57.878Z,32.60
2018-07-13T11:05:25.366Z,32.60
2018-07-13T11:07:53.162Z,33.30
2018-07-13T11:10:20.648Z,32.10
2018-07-13T11:12:48.144Z,30.30
2018-07-13T11:15:15.776Z,31.40
2018-07-13T11:17:43.288Z,30.80
2018-07-13T11:20:10.782Z,30.50
2018-07-13T11:22:38.297Z,31.60
2018-07-13T11:25:05.800Z,30.50
2018-07-13T11:27:33.314Z,30.00
2018-07-13T11:30:00.848Z,29.80
2018-07-13T11:34:55.840Z,30.30
2018-07-13T11:37:23.676Z,30.60
2018-07-13T11:39:51.076Z,30.30
2018-07-13T11:42:18.597Z,29.20
2018-07-13T11:44:46.091Z,29.80
2018-07-13T11:47:13.948Z,29.90
2018-07-13T11:49:41.469Z,30.00
2018-07-13T11:52:09.021Z,29.90
2018-07-13T11:54:36.528Z,30.60
2018-07-13T11:57:04.068Z,29.40
2018-07-13T11:59:31.614Z,29.30
2018-07-13T12:01:59.130Z,30.40
2018-07-13T12:04:26.681Z,30.10
2018-07-13T12:06:54.292Z,30.20
2018-07-13T12:09:21.813Z,30.00
2018-07-13T12:11:49.482Z,30.00
2018-07-13T12:14:17.003Z,30.00
2018-07-13T12:16:44.589Z,29.60
2018-07-13T12:19:12.219Z,30.20
2018-07-13T12:21:39.811Z,29.50
2018-07-13T12:24:07.299Z,29.40
2018-07-13T12:26:34.854Z,29.30
2018-07-13T12:29:02.628Z,28.90
2018-07-13T12:31:31.041Z,29.70
2018-07-13T12:36:26.325Z,29.50
2018-07-13T12:38:53.825Z,29.00
2018-07-13T12:41:21.318Z,28.60
2018-07-13T12:43:49.224Z,27.50
2018-07-13T12:46:23.463Z,28.60
2018-07-13T12:51:18.442Z,27.40
2018-07-13T12:53:45.971Z,27.60
2018-07-13T12:56:13.517Z,27.10
2018-07-13T12:58:41.000Z,27.40
2018-07-13T13:01:08.476Z,27.50
2018-07-13T13:03:36.134Z,27.40
2018-07-13T13:06:03.860Z,27.10
2018-07-13T13:08:31.823Z,27.70
2018-07-13T13:10:59.631Z,27.50
2018-07-13T13:13:27.151Z,27.40
2018-07-13T13:15:54.698Z,27.80
2018-07-13T13:19:25.663Z,27.20
2018-07-13T13:21:53.236Z,28.00
2018-07-13T13:24:20.918Z,27.20
2018-07-13T13:26:48.431Z,27.40
2018-07-13T13:29:15.929Z,27.60
2018-07-13T13:31:43.610Z,27.90
2018-07-13T13:34:11.091Z,27.50
2018-07-13T13:36:38.614Z,27.90
2018-07-13T13:39:06.221Z,27.90
2018-07-13T13:41:33.750Z,28.10
2018-07-13T13:44:01.509Z,27.60
2018-07-13T13:46:29.046Z,27.60
2018-07-13T13:48:56.827Z,28.20
2018-07-13T13:53:52.056Z,27.40
2018-07-13T13:56:19.700Z,27.30
2018-07-13T13:58:47.240Z,27.30
2018-07-13T14:01:14.798Z,27.40
2018-07-13T14:03:42.693Z,27.30
2018-07-13T14:06:10.312Z,26.80
2018-07-13T14:08:38.724Z,27.30
2018-07-13T14:11:06.220Z,27.30
2018-07-13T14:13:33.737Z,27.70
2018-07-13T14:18:29.041Z,28.30
2018-07-13T14:20:56.573Z,27.80
2018-07-13T14:23:24.061Z,27.20
2018-07-13T14:25:51.694Z,27.70
2018-07-13T14:28:19.440Z,27.30
2018-07-13T14:30:46.961Z,27.30
2018-07-13T14:33:14.704Z,27.50
2018-07-13T14:35:42.214Z,27.50
2018-07-13T14:38:09.732Z,27.10
2018-07-13T14:40:37.269Z,26.70
2018-07-13T14:43:04.833Z,27.00
2018-07-13T14:45:32.354Z,27.50
2018-07-13T14:48:00.042Z,28.00
2018-07-13T14:50:27.575Z,27.60
2018-07-13T14:52:55.091Z,27.80
2018-07-13T14:55:22.790Z,27.80
2018-07-13T14:57:50.312Z,27.00
2018-07-13T15:00:17.930Z,27.30
2018-07-13T15:02:45.493Z,27.10
2018-07-13T15:05:13.064Z,27.60
2018-07-13T15:07:40.560Z,27.70
2018-07-13T15:10:08.142Z,27.10
2018-07-13T15:12:35.604Z,27.40
2018-07-13T15:15:03.205Z,27.40
2018-07-13T15:17:30.771Z,27.20
2018-07-13T15:19:58.216Z,27.70
2018-07-13T15:22:25.744Z,27.50
2018-07-13T15:24:53.433Z,27.80
2018-07-13T15:27:20.949Z,27.50
2018-07-13T15:29:48.467Z,27.00
2018-07-13T15:32:16.066Z,28.40
2018-07-13T15:34:43.576Z,28.50
2018-07-13T15:39:38.753Z,27.60
2018-07-13T15:42:06.291Z,27.50
2018-07-13T15:44:34.401Z,28.10
2018-07-13T15:47:02.176Z,28.40
2018-07-13T15:49:29.760Z,28.50
2018-07-13T15:51:57.437Z,28.50
2018-07-13T15:54:24.964Z,28.30
2018-07-13T15:56:52.455Z,28.40
2018-07-13T15:59:19.996Z,28.60
2018-07-13T16:04:15.029Z,28.70
2018-07-13T16:06:42.516Z,28.70
2018-07-13T16:09:10.093Z,28.30
2018-07-13T16:11:37.640Z,28.30
2018-07-13T16:14:05.225Z,27.80
2018-07-13T16:16:32.746Z,28.00
2018-07-13T16:19:00.269Z,28.10
2018-07-13T16:21:27.755Z,28.00
2018-07-13T16:23:55.297Z,28.30
2018-07-13T16:26:22.762Z,28.30
2018-07-13T16:28:50.457Z,27.70
2018-07-13T16:31:17.956Z,27.40
2018-07-13T16:33:45.465Z,27.70
2018-07-13T16:36:12.972Z,27.60
2018-07-13T16:38:40.482Z,28.00
2018-07-13T16:41:08.160Z,28.30
2018-07-13T16:43:35.665Z,28.10
2018-07-13T16:46:03.236Z,28.20
2018-07-13T16:48:31.166Z,28.50
2018-07-13T16:50:58.667Z,28.30
2018-07-13T16:53:26.181Z,28.70
2018-07-13T16:55:53.721Z,28.60
2018-07-13T16:58:21.199Z,27.70
2018-07-13T17:00:48.737Z,27.90
2018-07-13T17:03:16.547Z,27.70
2018-07-13T17:05:43.954Z,27.80
2018-07-13T17:08:11.464Z,27.90
2018-07-13T17:10:39.028Z,27.90
2018-07-13T17:13:06.512Z,27.60
2018-07-13T17:15:34.138Z,28.10
2018-07-13T17:18:01.688Z,27.80
2018-07-13T17:20:29.348Z,27.70
2018-07-13T17:22:56.740Z,28.20
2018-07-13T17:25:24.511Z,29.20
2018-07-13T17:27:52.003Z,30.90
2018-07-13T17:32:46.988Z,29.80
2018-07-13T17:35:14.913Z,29.60
2018-07-13T17:37:42.357Z,30.40
2018-07-13T17:40:10.076Z,30.10
2018-07-13T17:42:37.675Z,30.00
2018-07-13T17:45:05.700Z,29.90
2018-07-13T17:47:33.368Z,30.40
2018-07-13T17:50:00.874Z,30.50
2018-07-13T17:52:28.526Z,30.30
2018-07-13T17:54:56.077Z,30.70
2018-07-13T17:59:51.414Z,31.20
2018-07-13T18:02:19.130Z,30.80
2018-07-13T18:04:46.685Z,30.90
2018-07-13T18:07:14.236Z,30.50
2018-07-13T18:09:41.945Z,30.60
2018-07-13T18:12:10.872Z,31.20
2018-07-13T18:14:38.485Z,31.00
2018-07-13T18:17:06.221Z,31.50
2018-07-13T18:19:33.744Z,32.00
2018-07-13T18:22:01.261Z,31.80
2018-07-13T18:24:28.889Z,32.00
2018-07-13T18:26:56.512Z,32.40
2018-07-13T18:29:24.246Z,32.90
2018-07-13T18:31:51.769Z,33.30
2018-07-13T18:34:19.326Z,33.40
2018-07-13T18:36:46.820Z,32.90
2018-07-13T18:39:14.377Z,33.30
2018-07-13T18:46:43.928Z,35.80
2018-07-13T18:49:11.438Z,36.60
2018-07-13T18:51:38.977Z,36.90
2018-07-13T18:54:06.509Z,37.60
2018-07-13T18:56:34.000Z,38.20
2018-07-13T18:59:01.685Z,38.50
2018-07-13T19:01:29.152Z,39.00
2018-07-13T19:03:56.683Z,39.50
2018-07-13T19:06:24.224Z,40.70
2018-07-13T19:08:51.706Z,40.00
2018-07-13T19:12:22.373Z,40.40
2018-07-13T19:14:50.140Z,40.50
2018-07-13T19:19:45.588Z,41.70
2018-07-13T19:22:13.105Z,42.10
2018-07-13T19:24:40.632Z,42.30
2018-07-13T19:27:08.416Z,43.20
2018-07-13T19:29:35.895Z,42.90
2018-07-13T19:32:03.412Z,42.70
2018-07-13T19:34:30.997Z,42.60
2018-07-13T19:37:05.292Z,42.60
2018-07-13T19:39:32.812Z,42.50
2018-07-13T19:42:00.360Z,42.80
2018-07-13T19:44:27.881Z,42.80
2018-07-13T19:46:55.644Z,42.80
2018-07-13T19:49:23.177Z,42.90
2018-07-13T19:51:50.665Z,42.90
2018-07-13T19:54:19.539Z,42.90
2018-07-13T19:56:47.105Z,43.10
2018-07-13T19:59:14.593Z,43.60
2018-07-13T20:01:42.136Z,43.60
2018-07-13T20:04:09.713Z,44.00
2018-07-13T20:06:37.221Z,44.10
2018-07-13T20:09:05.744Z,44.40
2018-07-13T20:14:00.797Z,45.10
2018-07-13T20:16:28.324Z,44.90
2018-07-13T20:18:55.853Z,45.30
2018-07-13T20:21:23.408Z,45.50
2018-07-13T20:23:51.279Z,45.70
2018-07-13T20:26:19.205Z,45.60
2018-07-13T20:28:47.020Z,45.60
2018-07-13T20:31:15.330Z,46.30
2018-07-13T20:33:42.917Z,45.70
2018-07-13T20:36:10.601Z,45.40
2018-07-13T20:38:38.229Z,45.90
2018-07-13T20:41:05.798Z,46.10
2018-07-13T20:43:33.675Z,46.20
2018-07-13T20:46:01.198Z,46.00
2018-07-13T20:48:28.983Z,46.30
2018-07-13T20:50:56.570Z,46.50
2018-07-13T20:53:24.087Z,47.00
2018-07-13T20:55:51.601Z,47.00
2018-07-13T20:58:19.098Z,47.20
2018-07-13T21:00:46.624Z,47.30
2018-07-13T21:03:14.148Z,47.40
2018-07-13T21:05:41.829Z,47.50
2018-07-13T21:08:09.328Z,47.50
2018-07-13T21:10:37.097Z,47.50
2018-07-13T21:13:04.664Z,47.30
2018-07-13T21:15:32.236Z,47.40
2018-07-13T21:18:00.148Z,47.50
2018-07-13T21:20:27.750Z,47.70
2018-07-13T21:22:55.260Z,47.90
2018-07-13T21:25:22.784Z,48.20
2018-07-13T21:27:50.276Z,48.60
2018-07-13T21:32:45.800Z,48.70
2018-07-13T21:35:13.311Z,49.00
2018-07-13T21:37:41.311Z,49.10
2018-07-13T21:40:08.812Z,49.20
2018-07-13T21:42:36.704Z,49.20
2018-07-13T21:45:04.425Z,49.40
2018-07-13T21:47:32.008Z,49.40
2018-07-13T21:49:59.569Z,50.10
2018-07-13T21:52:27.220Z,49.30
2018-07-13T21:54:54.748Z,49.50
2018-07-13T21:57:22.420Z,49.30
2018-07-13T22:02:17.484Z,49.20
2018-07-13T22:04:45.052Z,49.10
2018-07-13T22:07:12.822Z,49.30
2018-07-13T22:09:40.321Z,49.50
2018-07-13T22:12:07.868Z,49.50
2018-07-13T22:14:35.457Z,49.80
2018-07-13T22:17:03.018Z,49.90
2018-07-13T22:19:30.498Z,50.40
2018-07-13T22:21:58.206Z,50.30
2018-07-13T22:24:25.780Z,50.30
2018-07-13T22:26:53.284Z,50.30
2018-07-13T22:29:20.820Z,50.40
2018-07-13T22:31:48.445Z,50.30
2018-07-13T22:34:15.973Z,50.60
2018-07-13T22:36:43.805Z,50.50
2018-07-13T22:39:11.268Z,51.00
2018-07-13T22:41:38.762Z,51.30
2018-07-13T22:44:06.656Z,51.50
2018-07-13T22:46:34.464Z,51.90
2018-07-13T22:49:01.949Z,51.60
2018-07-13T22:51:29.493Z,51.40
2018-07-13T22:53:57.023Z,51.70
2018-07-13T22:56:24.624Z,52.00
2018-07-13T22:58:52.466Z,52.90
2018-07-13T23:01:19.987Z,53.40
2018-07-13T23:03:47.885Z,52.80
2018-07-13T23:06:15.355Z,52.70
2018-07-13T23:08:42.873Z,52.80
2018-07-13T23:11:10.413Z,52.70
2018-07-13T23:13:37.900Z,52.60
2018-07-13T23:16:05.469Z,52.80
2018-07-13T23:18:32.968Z,52.40
2018-07-13T23:23:28.083Z,52.50
2018-07-13T23:25:55.793Z,52.70
2018-07-13T23:28:23.276Z,52.80
2018-07-13T23:30:50.837Z,52.70
2018-07-13T23:33:18.368Z,52.70
2018-07-13T23:35:45.864Z,52.60
2018-07-13T23:38:13.445Z,52.60
2018-07-13T23:40:40.964Z,53.10
2018-07-13T23:43:08.522Z,52.90
2018-07-13T23:45:36.078Z,52.90
2018-07-13T23:48:03.666Z,53.20
2018-07-13T23:50:31.188Z,52.90
2018-07-13T23:52:58.765Z,53.70
2018-07-13T23:55:26.308Z,53.80
2018-07-13T23:57:53.909Z,54.10
